sensor_id;sensor_type;location;lat;lon;timestamp;P1;durP1;ratioP1;P2;durP2;ratioP2
11386;SDS011;5748;53.102;8.456;2023-07-24T00:01:58;1.40;;;1.30;;
11386;SDS011;5748;53.102;8.456;2023-07-24T00:04:25;1.42;;;1.30;;
11386;SDS011;5748;53.102;8.456;2023-07-24T00:06:52;1.40;;;1.30;;
11386;SDS011;5748;53.102;8.456;2023-07-24T00:09:19;1.77;;;1.67;;
11386;SDS011;5748;53.102;8.456;2023-07-24T00:11:46;2.27;;;1.50;;
11386;SDS011;5748;53.102;8.456;2023-07-24T00:14:14;1.50;;;1.40;;
11386;SDS011;5748;53.102;8.456;2023-07-24T00:16:41;1.70;;;1.60;;
11386;SDS011;5748;53.102;8.456;2023-07-24T00:19:10;1.30;;;1.20;;
11386;SDS011;5748;53.102;8.456;2023-07-24T00:21:37;1.40;;;1.30;;
11386;SDS011;5748;53.102;8.456;2023-07-24T00:24:04;1.50;;;1.40;;
11386;SDS011;5748;53.102;8.456;2023-07-24T00:26:31;1.53;;;1.43;;
11386;SDS011;5748;53.102;8.456;2023-07-24T00:28:58;1.60;;;1.50;;
11386;SDS011;5748;53.102;8.456;2023-07-24T00:31:26;1.40;;;1.30;;
11386;SDS011;5748;53.102;8.456;2023-07-24T00:33:52;1.47;;;1.37;;
11386;SDS011;5748;53.102;8.456;2023-07-24T00:36:21;1.30;;;1.23;;
11386;SDS011;5748;53.102;8.456;2023-07-24T00:38:48;1.60;;;1.50;;
11386;SDS011;5748;53.102;8.456;2023-07-24T00:41:14;1.60;;;1.50;;
11386;SDS011;5748;53.102;8.456;2023-07-24T00:43:41;1.30;;;1.20;;
11386;SDS011;5748;53.102;8.456;2023-07-24T00:46:08;1.50;;;1.40;;
11386;SDS011;5748;53.102;8.456;2023-07-24T00:48:36;1.40;;;1.30;;
11386;SDS011;5748;53.102;8.456;2023-07-24T00:51:04;1.63;;;1.53;;
11386;SDS011;5748;53.102;8.456;2023-07-24T00:53:33;1.30;;;1.20;;
11386;SDS011;5748;53.102;8.456;2023-07-24T00:56:00;1.63;;;1.30;;
11386;SDS011;5748;53.102;8.456;2023-07-24T00:58:27;1.60;;;1.50;;
11386;SDS011;5748;53.102;8.456;2023-07-24T01:00:54;2.03;;;1.50;;
11386;SDS011;5748;53.102;8.456;2023-07-24T01:03:22;1.47;;;1.37;;
11386;SDS011;5748;53.102;8.456;2023-07-24T01:05:57;1.40;;;1.30;;
11386;SDS011;5748;53.102;8.456;2023-07-24T01:08:25;1.47;;;1.37;;
11386;SDS011;5748;53.102;8.456;2023-07-24T01:10:53;1.50;;;1.40;;
11386;SDS011;5748;53.102;8.456;2023-07-24T01:13:24;1.60;;;1.50;;
11386;SDS011;5748;53.102;8.456;2023-07-24T01:15:55;1.37;;;1.27;;
11386;SDS011;5748;53.102;8.456;2023-07-24T01:18:27;1.73;;;1.50;;
11386;SDS011;5748;53.102;8.456;2023-07-24T01:20:57;1.60;;;1.50;;
11386;SDS011;5748;53.102;8.456;2023-07-24T01:23:31;1.47;;;1.37;;
11386;SDS011;5748;53.102;8.456;2023-07-24T01:26:08;2.00;;;1.80;;
11386;SDS011;5748;53.102;8.456;2023-07-24T01:28:36;2.00;;;1.80;;
11386;SDS011;5748;53.102;8.456;2023-07-24T01:31:04;1.93;;;1.83;;
11386;SDS011;5748;53.102;8.456;2023-07-24T01:33:31;2.13;;;1.90;;
11386;SDS011;5748;53.102;8.456;2023-07-24T01:36:00;1.73;;;1.63;;
11386;SDS011;5748;53.102;8.456;2023-07-24T01:38:30;2.00;;;1.80;;
11386;SDS011;5748;53.102;8.456;2023-07-24T01:41:00;1.97;;;1.77;;
11386;SDS011;5748;53.102;8.456;2023-07-24T01:43:29;1.93;;;1.83;;
11386;SDS011;5748;53.102;8.456;2023-07-24T01:45:57;1.87;;;1.77;;
11386;SDS011;5748;53.102;8.456;2023-07-24T01:48:24;2.40;;;2.17;;
11386;SDS011;5748;53.102;8.456;2023-07-24T01:50:51;2.37;;;2.17;;
11386;SDS011;5748;53.102;8.456;2023-07-24T01:53:18;1.97;;;1.87;;
11386;SDS011;5748;53.102;8.456;2023-07-24T01:55:45;1.90;;;1.80;;
11386;SDS011;5748;53.102;8.456;2023-07-24T01:58:11;2.30;;;2.10;;
11386;SDS011;5748;53.102;8.456;2023-07-24T02:00:40;2.63;;;2.10;;
11386;SDS011;5748;53.102;8.456;2023-07-24T02:03:07;2.30;;;2.10;;
11386;SDS011;5748;53.102;8.456;2023-07-24T02:05:34;2.07;;;1.97;;
11386;SDS011;5748;53.102;8.456;2023-07-24T02:08:01;2.27;;;2.07;;
11386;SDS011;5748;53.102;8.456;2023-07-24T02:10:28;2.47;;;2.27;;
11386;SDS011;5748;53.102;8.456;2023-07-24T02:12:55;2.27;;;2.07;;
11386;SDS011;5748;53.102;8.456;2023-07-24T02:15:22;2.20;;;2.00;;
11386;SDS011;5748;53.102;8.456;2023-07-24T02:17:50;2.40;;;1.97;;
11386;SDS011;5748;53.102;8.456;2023-07-24T02:20:17;1.80;;;1.70;;
11386;SDS011;5748;53.102;8.456;2023-07-24T02:22:44;1.93;;;1.80;;
11386;SDS011;5748;53.102;8.456;2023-07-24T02:25:11;1.93;;;1.77;;
11386;SDS011;5748;53.102;8.456;2023-07-24T02:27:37;1.90;;;1.80;;
11386;SDS011;5748;53.102;8.456;2023-07-24T02:30:05;2.10;;;1.90;;
11386;SDS011;5748;53.102;8.456;2023-07-24T02:32:33;2.00;;;1.80;;
11386;SDS011;5748;53.102;8.456;2023-07-24T02:35:01;2.10;;;1.90;;
11386;SDS011;5748;53.102;8.456;2023-07-24T02:37:28;1.87;;;1.77;;
11386;SDS011;5748;53.102;8.456;2023-07-24T02:39:55;1.90;;;1.80;;
11386;SDS011;5748;53.102;8.456;2023-07-24T02:42:22;1.83;;;1.73;;
11386;SDS011;5748;53.102;8.456;2023-07-24T02:44:49;1.80;;;1.70;;
11386;SDS011;5748;53.102;8.456;2023-07-24T02:47:17;2.27;;;1.80;;
11386;SDS011;5748;53.102;8.456;2023-07-24T02:49:44;1.90;;;1.80;;
11386;SDS011;5748;53.102;8.456;2023-07-24T02:52:12;1.80;;;1.70;;
11386;SDS011;5748;53.102;8.456;2023-07-24T02:54:39;2.13;;;1.60;;
11386;SDS011;5748;53.102;8.456;2023-07-24T02:57:06;1.57;;;1.47;;
11386;SDS011;5748;53.102;8.456;2023-07-24T02:59:33;1.70;;;1.60;;
11386;SDS011;5748;53.102;8.456;2023-07-24T03:02:00;2.33;;;1.90;;
11386;SDS011;5748;53.102;8.456;2023-07-24T03:04:27;2.07;;;1.90;;
11386;SDS011;5748;53.102;8.456;2023-07-24T03:06:54;2.27;;;2.07;;
11386;SDS011;5748;53.102;8.456;2023-07-24T03:09:22;2.00;;;1.90;;
11386;SDS011;5748;53.102;8.456;2023-07-24T03:11:49;1.97;;;1.80;;
11386;SDS011;5748;53.102;8.456;2023-07-24T03:14:16;2.03;;;1.93;;
11386;SDS011;5748;53.102;8.456;2023-07-24T03:16:43;1.77;;;1.67;;
11386;SDS011;5748;53.102;8.456;2023-07-24T03:19:10;1.90;;;1.80;;
11386;SDS011;5748;53.102;8.456;2023-07-24T03:21:36;1.87;;;1.77;;
11386;SDS011;5748;53.102;8.456;2023-07-24T03:24:04;2.03;;;1.87;;
11386;SDS011;5748;53.102;8.456;2023-07-24T03:26:32;2.13;;;2.00;;
11386;SDS011;5748;53.102;8.456;2023-07-24T03:29:00;1.73;;;1.63;;
11386;SDS011;5748;53.102;8.456;2023-07-24T03:31:26;2.10;;;1.90;;
11386;SDS011;5748;53.102;8.456;2023-07-24T03:33:53;1.90;;;1.80;;
11386;SDS011;5748;53.102;8.456;2023-07-24T03:36:20;1.90;;;1.80;;
11386;SDS011;5748;53.102;8.456;2023-07-24T03:38:47;1.90;;;1.77;;
11386;SDS011;5748;53.102;8.456;2023-07-24T03:41:14;1.80;;;1.70;;
11386;SDS011;5748;53.102;8.456;2023-07-24T03:43:42;1.88;;;1.77;;
11386;SDS011;5748;53.102;8.456;2023-07-24T03:46:09;2.10;;;1.53;;
11386;SDS011;5748;53.102;8.456;2023-07-24T03:48:36;1.87;;;1.77;;
11386;SDS011;5748;53.102;8.456;2023-07-24T03:51:03;1.73;;;1.63;;
11386;SDS011;5748;53.102;8.456;2023-07-24T03:53:30;2.00;;;1.90;;
11386;SDS011;5748;53.102;8.456;2023-07-24T03:55:56;1.87;;;1.77;;
11386;SDS011;5748;53.102;8.456;2023-07-24T03:58:23;1.70;;;1.60;;
11386;SDS011;5748;53.102;8.456;2023-07-24T04:00:52;1.70;;;1.60;;
11386;SDS011;5748;53.102;8.456;2023-07-24T04:03:18;1.63;;;1.53;;
11386;SDS011;5748;53.102;8.456;2023-07-24T04:05:45;1.87;;;1.70;;
11386;SDS011;5748;53.102;8.456;2023-07-24T04:08:12;1.70;;;1.60;;
11386;SDS011;5748;53.102;8.456;2023-07-24T04:10:39;1.77;;;1.67;;
11386;SDS011;5748;53.102;8.456;2023-07-24T04:13:06;1.70;;;1.60;;
11386;SDS011;5748;53.102;8.456;2023-07-24T04:15:33;1.80;;;1.70;;
11386;SDS011;5748;53.102;8.456;2023-07-24T04:18:01;1.70;;;1.60;;
11386;SDS011;5748;53.102;8.456;2023-07-24T04:20:28;2.33;;;1.60;;
11386;SDS011;5748;53.102;8.456;2023-07-24T04:22:55;1.70;;;1.60;;
11386;SDS011;5748;53.102;8.456;2023-07-24T04:25:22;1.50;;;1.40;;
11386;SDS011;5748;53.102;8.456;2023-07-24T04:27:49;1.70;;;1.60;;
11386;SDS011;5748;53.102;8.456;2023-07-24T04:30:16;1.50;;;1.37;;
11386;SDS011;5748;53.102;8.456;2023-07-24T04:32:43;1.43;;;1.33;;
11386;SDS011;5748;53.102;8.456;2023-07-24T04:35:12;1.70;;;1.60;;
11386;SDS011;5748;53.102;8.456;2023-07-24T04:37:39;1.60;;;1.50;;
11386;SDS011;5748;53.102;8.456;2023-07-24T04:40:06;1.60;;;1.50;;
11386;SDS011;5748;53.102;8.456;2023-07-24T04:42:34;1.60;;;1.50;;
11386;SDS011;5748;53.102;8.456;2023-07-24T04:45:01;1.50;;;1.40;;
11386;SDS011;5748;53.102;8.456;2023-07-24T04:47:28;3.00;;;1.50;;
11386;SDS011;5748;53.102;8.456;2023-07-24T04:49:55;1.40;;;1.30;;
11386;SDS011;5748;53.102;8.456;2023-07-24T04:52:23;1.30;;;1.20;;
11386;SDS011;5748;53.102;8.456;2023-07-24T04:54:50;1.37;;;1.27;;
11386;SDS011;5748;53.102;8.456;2023-07-24T04:57:17;1.30;;;1.20;;
11386;SDS011;5748;53.102;8.456;2023-07-24T04:59:44;2.33;;;1.33;;
11386;SDS011;5748;53.102;8.456;2023-07-24T05:02:11;1.60;;;1.50;;
11386;SDS011;5748;53.102;8.456;2023-07-24T05:04:38;1.50;;;1.40;;
11386;SDS011;5748;53.102;8.456;2023-07-24T05:07:06;1.30;;;1.20;;
11386;SDS011;5748;53.102;8.456;2023-07-24T05:09:34;1.50;;;1.27;;
11386;SDS011;5748;53.102;8.456;2023-07-24T05:12:01;1.50;;;1.40;;
11386;SDS011;5748;53.102;8.456;2023-07-24T05:14:29;1.47;;;1.37;;
11386;SDS011;5748;53.102;8.456;2023-07-24T05:16:56;1.70;;;1.60;;
11386;SDS011;5748;53.102;8.456;2023-07-24T05:19:22;1.40;;;1.30;;
11386;SDS011;5748;53.102;8.456;2023-07-24T05:21:49;1.50;;;1.40;;
11386;SDS011;5748;53.102;8.456;2023-07-24T05:24:16;1.30;;;1.20;;
11386;SDS011;5748;53.102;8.456;2023-07-24T05:26:44;1.40;;;1.30;;
11386;SDS011;5748;53.102;8.456;2023-07-24T05:29:11;1.30;;;1.20;;
11386;SDS011;5748;53.102;8.456;2023-07-24T05:31:38;1.40;;;1.30;;
11386;SDS011;5748;53.102;8.456;2023-07-24T05:34:05;1.47;;;1.37;;
11386;SDS011;5748;53.102;8.456;2023-07-24T05:36:32;1.40;;;1.30;;
11386;SDS011;5748;53.102;8.456;2023-07-24T05:38:59;1.33;;;1.23;;
11386;SDS011;5748;53.102;8.456;2023-07-24T05:41:26;1.40;;;1.30;;
11386;SDS011;5748;53.102;8.456;2023-07-24T05:43:54;1.40;;;1.30;;
11386;SDS011;5748;53.102;8.456;2023-07-24T05:46:21;1.33;;;1.23;;
11386;SDS011;5748;53.102;8.456;2023-07-24T05:48:48;1.58;;;1.48;;
11386;SDS011;5748;53.102;8.456;2023-07-24T05:51:15;1.50;;;1.40;;
11386;SDS011;5748;53.102;8.456;2023-07-24T05:53:42;2.93;;;1.40;;
11386;SDS011;5748;53.102;8.456;2023-07-24T05:56:09;1.35;;;1.25;;
11386;SDS011;5748;53.102;8.456;2023-07-24T05:58:36;1.60;;;1.50;;
11386;SDS011;5748;53.102;8.456;2023-07-24T06:01:04;1.60;;;1.50;;
11386;SDS011;5748;53.102;8.456;2023-07-24T06:03:33;1.50;;;1.40;;
11386;SDS011;5748;53.102;8.456;2023-07-24T06:06:00;1.50;;;1.40;;
11386;SDS011;5748;53.102;8.456;2023-07-24T06:08:27;1.42;;;1.33;;
11386;SDS011;5748;53.102;8.456;2023-07-24T06:10:54;1.60;;;1.50;;
11386;SDS011;5748;53.102;8.456;2023-07-24T06:13:20;1.93;;;1.50;;
11386;SDS011;5748;53.102;8.456;2023-07-24T06:15:48;1.65;;;1.55;;
11386;SDS011;5748;53.102;8.456;2023-07-24T06:18:16;1.70;;;1.60;;
11386;SDS011;5748;53.102;8.456;2023-07-24T06:20:43;1.60;;;1.50;;
11386;SDS011;5748;53.102;8.456;2023-07-24T06:23:10;1.60;;;1.50;;
11386;SDS011;5748;53.102;8.456;2023-07-24T06:25:37;1.93;;;1.73;;
11386;SDS011;5748;53.102;8.456;2023-07-24T06:28:04;1.80;;;1.70;;
11386;SDS011;5748;53.102;8.456;2023-07-24T06:30:31;1.77;;;1.67;;
11386;SDS011;5748;53.102;8.456;2023-07-24T06:32:58;2.07;;;1.87;;
11386;SDS011;5748;53.102;8.456;2023-07-24T06:35:26;1.73;;;1.63;;
11386;SDS011;5748;53.102;8.456;2023-07-24T06:37:53;1.63;;;1.53;;
11386;SDS011;5748;53.102;8.456;2023-07-24T06:40:20;1.70;;;1.60;;
11386;SDS011;5748;53.102;8.456;2023-07-24T06:42:47;1.90;;;1.80;;
11386;SDS011;5748;53.102;8.456;2023-07-24T06:45:14;1.80;;;1.70;;
11386;SDS011;5748;53.102;8.456;2023-07-24T06:47:40;3.03;;;2.00;;
11386;SDS011;5748;53.102;8.456;2023-07-24T06:50:07;1.70;;;1.60;;
11386;SDS011;5748;53.102;8.456;2023-07-24T06:52:36;2.73;;;1.70;;
11386;SDS011;5748;53.102;8.456;2023-07-24T06:55:03;1.67;;;1.57;;
11386;SDS011;5748;53.102;8.456;2023-07-24T06:57:31;1.80;;;1.70;;
11386;SDS011;5748;53.102;8.456;2023-07-24T06:59:58;1.77;;;1.67;;
11386;SDS011;5748;53.102;8.456;2023-07-24T07:02:24;1.83;;;1.73;;
11386;SDS011;5748;53.102;8.456;2023-07-24T07:04:53;1.90;;;1.80;;
11386;SDS011;5748;53.102;8.456;2023-07-24T07:07:20;1.70;;;1.60;;
11386;SDS011;5748;53.102;8.456;2023-07-24T07:09:48;2.00;;;1.90;;
11386;SDS011;5748;53.102;8.456;2023-07-24T07:12:15;2.10;;;2.00;;
11386;SDS011;5748;53.102;8.456;2023-07-24T07:14:42;2.33;;;2.13;;
11386;SDS011;5748;53.102;8.456;2023-07-24T07:17:09;2.20;;;2.05;;
11386;SDS011;5748;53.102;8.456;2023-07-24T07:19:36;4.53;;;2.90;;
11386;SDS011;5748;53.102;8.456;2023-07-24T07:22:03;2.77;;;2.30;;
11386;SDS011;5748;53.102;8.456;2023-07-24T07:24:30;2.40;;;2.20;;
11386;SDS011;5748;53.102;8.456;2023-07-24T07:26:58;2.37;;;2.10;;
11386;SDS011;5748;53.102;8.456;2023-07-24T07:29:25;2.50;;;2.30;;
11386;SDS011;5748;53.102;8.456;2023-07-24T07:31:52;2.30;;;2.10;;
11386;SDS011;5748;53.102;8.456;2023-07-24T07:34:19;2.40;;;2.25;;
11386;SDS011;5748;53.102;8.456;2023-07-24T07:36:46;2.80;;;2.38;;
11386;SDS011;5748;53.102;8.456;2023-07-24T07:39:12;2.58;;;2.38;;
11386;SDS011;5748;53.102;8.456;2023-07-24T07:41:39;2.58;;;2.38;;
11386;SDS011;5748;53.102;8.456;2023-07-24T07:44:07;2.72;;;2.53;;
11386;SDS011;5748;53.102;8.456;2023-07-24T07:46:34;3.08;;;2.88;;
11386;SDS011;5748;53.102;8.456;2023-07-24T07:49:01;3.10;;;2.55;;
11386;SDS011;5748;53.102;8.456;2023-07-24T07:51:28;2.50;;;2.30;;
11386;SDS011;5748;53.102;8.456;2023-07-24T07:53:55;2.50;;;2.33;;
11386;SDS011;5748;53.102;8.456;2023-07-24T07:56:22;2.70;;;2.50;;
11386;SDS011;5748;53.102;8.456;2023-07-24T07:58:49;2.83;;;2.63;;
11386;SDS011;5748;53.102;8.456;2023-07-24T08:01:17;2.85;;;2.65;;
11386;SDS011;5748;53.102;8.456;2023-07-24T08:03:44;2.60;;;2.40;;
11386;SDS011;5748;53.102;8.456;2023-07-24T08:06:10;2.60;;;2.40;;
11386;SDS011;5748;53.102;8.456;2023-07-24T08:08:38;2.75;;;2.55;;
11386;SDS011;5748;53.102;8.456;2023-07-24T08:11:05;3.55;;;2.90;;
11386;SDS011;5748;53.102;8.456;2023-07-24T08:13:32;2.60;;;2.40;;
11386;SDS011;5748;53.102;8.456;2023-07-24T08:15:59;2.70;;;2.50;;
11386;SDS011;5748;53.102;8.456;2023-07-24T08:18:29;2.47;;;2.28;;
11386;SDS011;5748;53.102;8.456;2023-07-24T08:20:56;2.33;;;2.20;;
11386;SDS011;5748;53.102;8.456;2023-07-24T08:23:23;2.42;;;2.22;;
11386;SDS011;5748;53.102;8.456;2023-07-24T08:25:50;2.67;;;2.47;;
11386;SDS011;5748;53.102;8.456;2023-07-24T08:28:18;2.35;;;2.20;;
11386;SDS011;5748;53.102;8.456;2023-07-24T08:30:46;3.03;;;2.47;;
11386;SDS011;5748;53.102;8.456;2023-07-24T08:33:13;2.83;;;2.47;;
11386;SDS011;5748;53.102;8.456;2023-07-24T08:35:41;2.90;;;2.70;;
11386;SDS011;5748;53.102;8.456;2023-07-24T08:38:08;2.42;;;2.25;;
11386;SDS011;5748;53.102;8.456;2023-07-24T08:40:34;2.60;;;2.40;;
11386;SDS011;5748;53.102;8.456;2023-07-24T08:43:02;2.80;;;2.60;;
11386;SDS011;5748;53.102;8.456;2023-07-24T08:45:29;2.80;;;2.60;;
11386;SDS011;5748;53.102;8.456;2023-07-24T08:47:57;2.50;;;2.30;;
11386;SDS011;5748;53.102;8.456;2023-07-24T08:50:25;2.58;;;2.38;;
11386;SDS011;5748;53.102;8.456;2023-07-24T08:52:54;2.47;;;2.28;;
11386;SDS011;5748;53.102;8.456;2023-07-24T08:55:23;2.72;;;2.53;;
11386;SDS011;5748;53.102;8.456;2023-07-24T08:57:51;2.60;;;2.40;;
11386;SDS011;5748;53.102;8.456;2023-07-24T09:00:18;2.55;;;2.35;;
11386;SDS011;5748;53.102;8.456;2023-07-24T09:02:45;2.63;;;2.42;;
11386;SDS011;5748;53.102;8.456;2023-07-24T09:05:12;2.70;;;2.50;;
11386;SDS011;5748;53.102;8.456;2023-07-24T09:07:40;2.65;;;2.45;;
11386;SDS011;5748;53.102;8.456;2023-07-24T09:10:09;2.25;;;2.10;;
11386;SDS011;5748;53.102;8.456;2023-07-24T09:12:37;2.60;;;2.40;;
11386;SDS011;5748;53.102;8.456;2023-07-24T09:15:04;2.60;;;2.40;;
11386;SDS011;5748;53.102;8.456;2023-07-24T09:17:33;2.80;;;2.60;;
11386;SDS011;5748;53.102;8.456;2023-07-24T09:19:59;2.60;;;2.40;;
11386;SDS011;5748;53.102;8.456;2023-07-24T09:22:28;2.15;;;2.05;;
11386;SDS011;5748;53.102;8.456;2023-07-24T09:24:56;2.22;;;2.10;;
11386;SDS011;5748;53.102;8.456;2023-07-24T09:27:25;2.30;;;2.20;;
11386;SDS011;5748;53.102;8.456;2023-07-24T09:29:54;2.30;;;2.10;;
11386;SDS011;5748;53.102;8.456;2023-07-24T09:32:22;2.72;;;2.53;;
11386;SDS011;5748;53.102;8.456;2023-07-24T09:34:51;2.30;;;2.20;;
11386;SDS011;5748;53.102;8.456;2023-07-24T09:37:22;2.58;;;2.38;;
11386;SDS011;5748;53.102;8.456;2023-07-24T09:39:53;2.60;;;2.40;;
11386;SDS011;5748;53.102;8.456;2023-07-24T09:42:31;2.55;;;2.35;;
11386;SDS011;5748;53.102;8.456;2023-07-24T09:45:00;2.28;;;2.10;;
11386;SDS011;5748;53.102;8.456;2023-07-24T09:47:27;2.20;;;2.10;;
11386;SDS011;5748;53.102;8.456;2023-07-24T09:49:54;2.40;;;2.20;;
11386;SDS011;5748;53.102;8.456;2023-07-24T09:52:22;2.65;;;2.45;;
11386;SDS011;5748;53.102;8.456;2023-07-24T09:54:55;2.53;;;2.33;;
11386;SDS011;5748;53.102;8.456;2023-07-24T09:57:27;2.63;;;2.42;;
11386;SDS011;5748;53.102;8.456;2023-07-24T09:59:57;2.30;;;2.20;;
11386;SDS011;5748;53.102;8.456;2023-07-24T10:02:25;2.20;;;2.10;;
11386;SDS011;5748;53.102;8.456;2023-07-24T10:04:52;2.35;;;2.17;;
11386;SDS011;5748;53.102;8.456;2023-07-24T10:07:20;2.65;;;2.45;;
11386;SDS011;5748;53.102;8.456;2023-07-24T10:09:48;2.40;;;2.30;;
11386;SDS011;5748;53.102;8.456;2023-07-24T10:12:16;2.45;;;2.25;;
11386;SDS011;5748;53.102;8.456;2023-07-24T10:14:44;2.30;;;2.08;;
11386;SDS011;5748;53.102;8.456;2023-07-24T10:17:14;2.50;;;2.30;;
11386;SDS011;5748;53.102;8.456;2023-07-24T10:19:41;2.17;;;2.08;;
11386;SDS011;5748;53.102;8.456;2023-07-24T10:22:09;2.42;;;2.22;;
11386;SDS011;5748;53.102;8.456;2023-07-24T10:24:43;2.40;;;2.20;;
11386;SDS011;5748;53.102;8.456;2023-07-24T10:27:10;2.00;;;1.90;;
11386;SDS011;5748;53.102;8.456;2023-07-24T10:29:37;2.20;;;2.10;;
11386;SDS011;5748;53.102;8.456;2023-07-24T10:32:15;2.28;;;2.17;;
11386;SDS011;5748;53.102;8.456;2023-07-24T10:34:44;2.15;;;2.05;;
11386;SDS011;5748;53.102;8.456;2023-07-24T10:37:11;2.10;;;2.00;;
11386;SDS011;5748;53.102;8.456;2023-07-24T10:39:38;2.05;;;1.95;;
11386;SDS011;5748;53.102;8.456;2023-07-24T10:42:07;2.10;;;2.00;;
11386;SDS011;5748;53.102;8.456;2023-07-24T10:44:35;2.10;;;2.00;;
11386;SDS011;5748;53.102;8.456;2023-07-24T10:47:02;2.45;;;2.20;;
11386;SDS011;5748;53.102;8.456;2023-07-24T10:49:31;2.63;;;2.17;;
11386;SDS011;5748;53.102;8.456;2023-07-24T10:51:58;2.20;;;2.10;;
11386;SDS011;5748;53.102;8.456;2023-07-24T10:54:25;2.40;;;2.30;;
11386;SDS011;5748;53.102;8.456;2023-07-24T10:56:57;4.03;;;2.10;;
11386;SDS011;5748;53.102;8.456;2023-07-24T10:59:35;3.13;;;2.28;;
11386;SDS011;5748;53.102;8.456;2023-07-24T11:02:03;2.25;;;2.13;;
11386;SDS011;5748;53.102;8.456;2023-07-24T11:04:32;2.20;;;2.10;;
11386;SDS011;5748;53.102;8.456;2023-07-24T11:06:59;2.47;;;2.35;;
11386;SDS011;5748;53.102;8.456;2023-07-24T11:09:34;2.30;;;2.10;;
11386;SDS011;5748;53.102;8.456;2023-07-24T11:12:08;2.00;;;1.90;;
11386;SDS011;5748;53.102;8.456;2023-07-24T11:14:50;2.10;;;2.00;;
11386;SDS011;5748;53.102;8.456;2023-07-24T11:17:19;1.85;;;1.75;;
11386;SDS011;5748;53.102;8.456;2023-07-24T11:19:47;2.20;;;2.10;;
11386;SDS011;5748;53.102;8.456;2023-07-24T11:22:14;2.13;;;2.03;;
11386;SDS011;5748;53.102;8.456;2023-07-24T11:24:42;1.85;;;1.75;;
11386;SDS011;5748;53.102;8.456;2023-07-24T11:27:14;2.10;;;2.00;;
11386;SDS011;5748;53.102;8.456;2023-07-24T11:29:46;2.20;;;2.10;;
11386;SDS011;5748;53.102;8.456;2023-07-24T11:32:16;2.28;;;2.08;;
11386;SDS011;5748;53.102;8.456;2023-07-24T11:34:45;2.38;;;2.20;;
11386;SDS011;5748;53.102;8.456;2023-07-24T11:37:15;2.40;;;2.20;;
11386;SDS011;5748;53.102;8.456;2023-07-24T11:39:43;2.20;;;2.10;;
11386;SDS011;5748;53.102;8.456;2023-07-24T11:42:21;2.60;;;2.50;;
11386;SDS011;5748;53.102;8.456;2023-07-24T11:44:50;2.17;;;2.08;;
11386;SDS011;5748;53.102;8.456;2023-07-24T11:47:17;2.30;;;2.20;;
11386;SDS011;5748;53.102;8.456;2023-07-24T11:49:44;2.05;;;1.95;;
11386;SDS011;5748;53.102;8.456;2023-07-24T11:52:23;2.70;;;2.50;;
11386;SDS011;5748;53.102;8.456;2023-07-24T11:54:56;2.55;;;2.35;;
11386;SDS011;5748;53.102;8.456;2023-07-24T11:57:26;2.60;;;2.40;;
11386;SDS011;5748;53.102;8.456;2023-07-24T11:59:54;2.28;;;2.17;;
11386;SDS011;5748;53.102;8.456;2023-07-24T12:02:22;2.90;;;2.70;;
11386;SDS011;5748;53.102;8.456;2023-07-24T12:04:55;2.40;;;2.20;;
11386;SDS011;5748;53.102;8.456;2023-07-24T12:07:30;2.90;;;2.70;;
11386;SDS011;5748;53.102;8.456;2023-07-24T12:10:00;3.05;;;2.78;;
11386;SDS011;5748;53.102;8.456;2023-07-24T12:12:37;2.83;;;2.63;;
11386;SDS011;5748;53.102;8.456;2023-07-24T12:15:06;2.28;;;2.17;;
11386;SDS011;5748;53.102;8.456;2023-07-24T12:17:35;2.10;;;2.00;;
11386;SDS011;5748;53.102;8.456;2023-07-24T12:20:04;2.28;;;2.08;;
11386;SDS011;5748;53.102;8.456;2023-07-24T12:22:34;1.90;;;1.80;;
11386;SDS011;5748;53.102;8.456;2023-07-24T12:25:01;2.15;;;2.00;;
11386;SDS011;5748;53.102;8.456;2023-07-24T12:27:29;2.30;;;2.20;;
11386;SDS011;5748;53.102;8.456;2023-07-24T12:29:56;2.03;;;1.92;;
11386;SDS011;5748;53.102;8.456;2023-07-24T12:32:23;2.15;;;2.05;;
11386;SDS011;5748;53.102;8.456;2023-07-24T12:34:51;2.60;;;2.40;;
11386;SDS011;5748;53.102;8.456;2023-07-24T12:37:20;2.28;;;2.17;;
11386;SDS011;5748;53.102;8.456;2023-07-24T12:39:47;2.58;;;2.40;;
11386;SDS011;5748;53.102;8.456;2023-07-24T12:42:15;2.92;;;2.10;;
11386;SDS011;5748;53.102;8.456;2023-07-24T12:44:43;2.33;;;2.17;;
11386;SDS011;5748;53.102;8.456;2023-07-24T12:47:10;2.65;;;2.45;;
11386;SDS011;5748;53.102;8.456;2023-07-24T12:49:37;2.63;;;2.42;;
11386;SDS011;5748;53.102;8.456;2023-07-24T12:52:04;2.58;;;2.38;;
11386;SDS011;5748;53.102;8.456;2023-07-24T12:54:33;2.50;;;2.30;;
11386;SDS011;5748;53.102;8.456;2023-07-24T12:57:01;2.70;;;2.50;;
11386;SDS011;5748;53.102;8.456;2023-07-24T12:59:28;2.70;;;2.50;;
11386;SDS011;5748;53.102;8.456;2023-07-24T13:01:56;2.47;;;2.28;;
11386;SDS011;5748;53.102;8.456;2023-07-24T13:04:23;2.85;;;2.58;;
11386;SDS011;5748;53.102;8.456;2023-07-24T13:06:50;2.72;;;2.53;;
11386;SDS011;5748;53.102;8.456;2023-07-24T13:09:17;2.50;;;2.30;;
11386;SDS011;5748;53.102;8.456;2023-07-24T13:11:47;2.90;;;2.70;;
11386;SDS011;5748;53.102;8.456;2023-07-24T13:14:16;2.60;;;2.40;;
11386;SDS011;5748;53.102;8.456;2023-07-24T13:16:43;2.65;;;2.45;;
11386;SDS011;5748;53.102;8.456;2023-07-24T13:19:10;2.70;;;2.50;;
11386;SDS011;5748;53.102;8.456;2023-07-24T13:21:37;2.50;;;2.30;;
11386;SDS011;5748;53.102;8.456;2023-07-24T13:24:05;2.65;;;2.45;;
11386;SDS011;5748;53.102;8.456;2023-07-24T13:26:32;2.47;;;2.28;;
11386;SDS011;5748;53.102;8.456;2023-07-24T13:29:00;2.70;;;2.50;;
11386;SDS011;5748;53.102;8.456;2023-07-24T13:31:28;2.58;;;2.38;;
11386;SDS011;5748;53.102;8.456;2023-07-24T13:33:57;2.90;;;2.70;;
11386;SDS011;5748;53.102;8.456;2023-07-24T13:36:24;3.38;;;2.65;;
11386;SDS011;5748;53.102;8.456;2023-07-24T13:38:51;2.65;;;2.45;;
11386;SDS011;5748;53.102;8.456;2023-07-24T13:41:18;2.65;;;2.45;;
11386;SDS011;5748;53.102;8.456;2023-07-24T13:43:44;2.30;;;2.10;;
11386;SDS011;5748;53.102;8.456;2023-07-24T13:46:13;1.95;;;1.85;;
11386;SDS011;5748;53.102;8.456;2023-07-24T13:48:40;2.42;;;2.22;;
11386;SDS011;5748;53.102;8.456;2023-07-24T13:51:07;2.80;;;2.38;;
11386;SDS011;5748;53.102;8.456;2023-07-24T13:53:34;2.53;;;2.33;;
11386;SDS011;5748;53.102;8.456;2023-07-24T13:56:01;2.40;;;2.20;;
11386;SDS011;5748;53.102;8.456;2023-07-24T13:58:28;2.03;;;1.92;;
11386;SDS011;5748;53.102;8.456;2023-07-24T14:00:55;2.20;;;2.00;;
11386;SDS011;5748;53.102;8.456;2023-07-24T14:03:23;2.50;;;2.15;;
11386;SDS011;5748;53.102;8.456;2023-07-24T14:05:54;2.20;;;2.00;;
11386;SDS011;5748;53.102;8.456;2023-07-24T14:08:22;2.05;;;1.95;;
11386;SDS011;5748;53.102;8.456;2023-07-24T14:10:49;2.92;;;2.10;;
11386;SDS011;5748;53.102;8.456;2023-07-24T14:13:16;2.35;;;2.15;;
11386;SDS011;5748;53.102;8.456;2023-07-24T14:15:43;2.20;;;2.10;;
11386;SDS011;5748;53.102;8.456;2023-07-24T14:18:10;3.03;;;2.30;;
11386;SDS011;5748;53.102;8.456;2023-07-24T14:20:38;2.50;;;2.30;;
11386;SDS011;5748;53.102;8.456;2023-07-24T14:23:05;2.13;;;1.92;;
11386;SDS011;5748;53.102;8.456;2023-07-24T14:25:33;1.95;;;1.85;;
11386;SDS011;5748;53.102;8.456;2023-07-24T14:28:00;1.90;;;1.80;;
11386;SDS011;5748;53.102;8.456;2023-07-24T14:30:27;2.13;;;2.03;;
11386;SDS011;5748;53.102;8.456;2023-07-24T14:32:54;2.25;;;2.05;;
11386;SDS011;5748;53.102;8.456;2023-07-24T14:35:21;2.33;;;2.00;;
11386;SDS011;5748;53.102;8.456;2023-07-24T14:37:49;2.88;;;2.17;;
11386;SDS011;5748;53.102;8.456;2023-07-24T14:40:17;2.33;;;2.13;;
11386;SDS011;5748;53.102;8.456;2023-07-24T14:42:44;2.00;;;1.90;;
11386;SDS011;5748;53.102;8.456;2023-07-24T14:45:11;2.22;;;2.13;;
11386;SDS011;5748;53.102;8.456;2023-07-24T14:47:38;1.90;;;1.80;;
11386;SDS011;5748;53.102;8.456;2023-07-24T14:50:05;1.92;;;1.80;;
11386;SDS011;5748;53.102;8.456;2023-07-24T14:52:33;2.03;;;1.92;;
11386;SDS011;5748;53.102;8.456;2023-07-24T14:55:01;2.20;;;2.00;;
11386;SDS011;5748;53.102;8.456;2023-07-24T14:57:30;2.15;;;1.98;;
11386;SDS011;5748;53.102;8.456;2023-07-24T14:59:57;1.85;;;1.75;;
11386;SDS011;5748;53.102;8.456;2023-07-24T15:02:24;2.20;;;2.00;;
11386;SDS011;5748;53.102;8.456;2023-07-24T15:04:51;2.05;;;1.60;;